Time;durP1;ratioP1;P1;durP2;ratioP2;P2;SDS_P1;SDS_P2;PMS_P1;PMS_P2;Temp;Humidity;BMP_temperature;BMP_pressure;BME280_temperature;BME280_humidity;BME280_pressure;Samples;Min_cycle;Max_cycle;Signal;HPM_P1;HPM_P2
2023/01/17 00:01:51;;;;;;;0.55;0.55;;;;;;;2.50;100.00;97434.06;6068790;23;20029;-94
2023/01/17 00:09:55;;;;;;;;;;;;;;;2.60;100.00;97449.31;6074189;23;20568;-93
2023/01/17 00:12:30;;;;;;;0.32;0.32;;;;;;;2.56;100.00;97437.72;6069876;23;19913;-95
2023/01/17 00:14:57;;;;;;;0.68;0.68;;;;;;;2.66;100.00;97457.72;6094552;23;20018;-94
2023/01/17 00:17:24;;;;;;;2.00;0.65;;;;;;;2.62;100.00;97460.59;6046450;23;20014;-94
2023/01/17 01:35:50;;;;;;;0.30;0.30;;;;;;;3.28;100.00;97492.13;6071697;23;20455;-95
2023/01/17 01:38:22;;;;;;;0.57;0.57;;;;;;;3.33;100.00;97488.06;6045259;23;20097;-95
2023/01/17 01:40:49;;;;;;;0.85;0.80;;;;;;;3.34;100.00;97486.84;6045827;23;20391;-94
2023/01/17 01:43:20;;;;;;;0.00;0.00;;;;;;;3.31;100.00;97487.75;6045702;23;20097;-94
2023/01/17 01:45:50;;;;;;;0.73;0.73;;;;;;;3.33;100.00;97493.53;6046268;23;20073;-94
2023/01/17 01:48:26;;;;;;;1.45;1.40;;;;;;;3.32;100.00;97489.25;6045593;23;20355;-96
2023/01/17 01:50:51;;;;;;;0.35;0.35;;;;;;;3.33;100.00;97488.06;6044833;23;20014;-94
2023/01/17 01:53:18;;;;;;;0.30;0.30;;;;;;;3.33;100.00;97493.53;6045618;23;20097;-94
2023/01/17 01:55:47;;;;;;;1.77;1.67;;;;;;;3.31;100.00;97485.00;6045825;23;20015;-94
2023/01/17 01:58:21;;;;;;;2.25;2.05;;;;;;;3.37;100.00;97494.16;6046074;23;20010;-94
2023/01/17 02:12:30;;;;;;;0.40;0.40;;;;;;;3.44;100.00;97480.19;6065122;23;20027;-92
2023/01/17 02:14:56;;;;;;;2.22;0.57;;;;;;;3.45;100.00;97469.97;5993129;23;20328;-92
2023/01/17 02:17:45;;;;;;;0.10;0.10;;;;;;;3.45;100.00;97473.50;5994453;23;20030;-92
2023/01/17 02:20:37;;;;;;;0.38;0.38;;;;;;;3.46;100.00;97463.28;6018801;23;20526;-93
2023/01/17 02:23:27;;;;;;;0.17;0.17;;;;;;;3.40;100.00;97460.38;6019591;23;20018;-91
2023/01/17 02:26:35;;;;;;;0.30;0.30;;;;;;;3.43;100.00;97470.44;6018460;23;20029;-92
2023/01/17 02:29:05;;;;;;;0.45;0.45;;;;;;;3.42;100.00;97474.41;5994686;23;20015;-94
2023/01/17 02:31:35;;;;;;;0.43;0.43;;;;;;;3.36;100.00;97457.00;6019619;23;20023;-92
2023/01/17 02:34:18;;;;;;;0.20;0.20;;;;;;;3.42;100.00;97463.44;5995159;23;20097;-93
2023/01/17 02:37:10;;;;;;;1.30;0.70;;;;;;;3.36;100.00;97459.00;5995078;23;20037;-92
2023/01/17 02:40:03;;;;;;;3.30;0.85;;;;;;;3.34;100.00;97462.19;6006571;23;20023;-94
2023/01/17 02:42:34;;;;;;;1.40;1.33;;;;;;;3.34;100.00;97462.19;6009592;23;20162;-93
2023/01/17 02:45:01;;;;;;;2.28;1.75;;;;;;;3.32;100.00;97472.81;5995306;23;20026;-93
2023/01/17 02:47:29;;;;;;;1.10;0.93;;;;;;;3.37;100.00;97483.19;5995746;23;20011;-92
2023/01/17 02:50:00;;;;;;;0.70;0.70;;;;;;;3.37;100.00;97488.69;5994923;23;20045;-92
2023/01/17 02:53:04;;;;;;;0.55;0.55;;;;;;;3.28;100.00;97472.97;5995182;23;20038;-93
2023/01/17 02:55:41;;;;;;;0.10;0.10;;;;;;;3.37;100.00;97476.94;6040150;23;20066;-93
2023/01/17 02:58:16;;;;;;;1.45;0.95;;;;;;;3.36;100.00;97470.72;6019001;23;20047;-93
2023/01/17 03:01:10;;;;;;;0.08;0.08;;;;;;;3.37;100.00;97477.72;6018895;23;20014;-93
2023/01/17 03:03:58;;;;;;;0.20;0.20;;;;;;;3.32;100.00;97466.59;5967712;23;20051;-92
2023/01/17 03:06:43;;;;;;;0.35;0.35;;;;;;;3.36;100.00;97473.44;6014829;23;20019;-93
2023/01/17 03:09:09;;;;;;;1.13;0.57;;;;;;;3.37;100.00;97477.72;5967042;23;20106;-93
2023/01/17 03:11:35;;;;;;;0.52;0.50;;;;;;;3.34;100.00;97467.66;5968202;23;20003;-93
2023/01/17 03:14:00;;;;;;;0.22;0.22;;;;;;;3.38;100.00;97478.50;6008292;23;20038;-93
2023/01/17 03:16:30;;;;;;;0.40;0.40;;;;;;;3.39;100.00;97480.78;6019332;23;20121;-94
2023/01/17 03:18:56;;;;;;;0.85;0.82;;;;;;;3.40;100.00;97487.03;6018441;23;20022;-93
2023/01/17 03:21:23;;;;;;;0.73;0.73;;;;;;;3.38;100.00;97495.69;6019315;23;20011;-93
2023/01/17 03:23:49;;;;;;;2.72;1.50;;;;;;;3.38;100.00;97501.19;6042513;23;20094;-95
2023/01/17 03:26:15;;;;;;;1.88;1.40;;;;;;;3.36;100.00;97508.31;6019590;23;20081;-92
2023/01/17 03:28:41;;;;;;;0.35;0.35;;;;;;;3.36;100.00;97513.81;6017650;23;20007;-93
2023/01/17 03:31:06;;;;;;;2.47;1.80;;;;;;;3.32;100.00;97502.22;6019569;23;20491;-92
2023/01/17 03:33:32;;;;;;;0.68;0.68;;;;;;;3.30;100.00;97502.66;6018448;23;20023;-93
2023/01/17 03:35:58;;;;;;;0.95;0.95;;;;;;;3.25;100.00;97501.25;6042297;23;20458;-94
2023/01/17 03:38:25;;;;;;;3.15;0.73;;;;;;;3.22;100.00;97498.66;6015142;23;20019;-93
2023/01/17 03:40:51;;;;;;;1.08;0.98;;;;;;;3.15;100.00;97486.00;6017346;23;20015;-93
2023/01/17 03:43:16;;;;;;;1.05;0.82;;;;;;;3.25;100.00;97493.03;6018456;23;20050;-92
2023/01/17 03:45:42;;;;;;;1.75;1.65;;;;;;;3.14;100.00;97483.72;6018737;23;20019;-93
2023/01/17 03:48:08;;;;;;;0.25;0.25;;;;;;;3.17;100.00;97480.06;6018680;23;20062;-92
2023/01/17 03:50:33;;;;;;;1.55;1.08;;;;;;;3.27;100.00;97518.03;6017955;23;20019;-93
2023/01/17 03:52:59;;;;;;;1.65;1.30;;;;;;;3.11;100.00;97504.56;6017342;23;20011;-92
2023/01/17 03:55:25;;;;;;;0.85;0.85;;;;;;;3.25;100.00;97528.66;6017862;23;20411;-94
2023/01/17 03:57:50;;;;;;;1.23;0.93;;;;;;;3.26;100.00;97543.13;6018211;23;20391;-92
2023/01/17 04:00:16;;;;;;;3.15;1.45;;;;;;;3.14;100.00;97530.28;6017469;23;20011;-93
2023/01/17 04:02:42;;;;;;;0.77;0.77;;;;;;;3.07;100.00;97528.56;6017498;23;20052;-92
2023/01/17 04:05:08;;;;;;;0.57;0.55;;;;;;;3.15;100.00;97537.28;6017233;23;20054;-91
2023/01/17 04:07:33;;;;;;;0.47;0.47;;;;;;;3.04;100.00;97525.94;6041504;23;20011;-93
2023/01/17 04:09:59;;;;;;;0.88;0.85;;;;;;;3.18;100.00;97550.06;6017462;23;20081;-92
2023/01/17 04:12:25;;;;;;;0.95;0.82;;;;;;;3.18;100.00;97552.81;6018967;23;20018;-93
2023/01/17 04:14:50;;;;;;;0.47;0.47;;;;;;;2.98;100.00;97530.47;6041240;23;20506;-93
2023/01/17 04:17:18;;;;;;;0.45;0.45;;;;;;;2.93;100.00;97531.81;6017530;23;20109;-92
2023/01/17 04:19:44;;;;;;;0.10;0.10;;;;;;;3.05;100.00;97557.59;6041502;23;20022;-92
2023/01/17 04:22:10;;;;;;;0.00;0.00;;;;;;;2.93;100.00;97528.31;6019229;23;20026;-96
2023/01/17 04:24:36;;;;;;;0.70;0.47;;;;;;;2.91;100.00;97528.00;6018383;23;20011;-94
2023/01/17 04:27:03;;;;;;;0.85;0.85;;;;;;;2.70;100.00;97508.41;6018634;23;20033;-93
2023/01/17 04:29:29;;;;;;;0.55;0.55;;;;;;;2.79;100.00;97533.06;6018029;23;20014;-95
2023/01/17 04:31:55;;;;;;;1.02;0.55;;;;;;;2.84;100.00;97539.94;6018200;23;20023;-94
2023/01/17 04:34:20;;;;;;;0.25;0.25;;;;;;;2.70;100.00;97535.75;6017547;23;20025;-95
2023/01/17 04:36:46;;;;;;;0.10;0.10;;;;;;;2.62;100.00;97536.44;6017998;23;20062;-93
2023/01/17 04:39:12;;;;;;;0.75;0.75;;;;;;;2.60;100.00;97547.06;6016509;23;20523;-94
2023/01/17 04:41:38;;;;;;;2.53;0.28;;;;;;;2.36;100.00;97527.56;6017985;23;20090;-94
2023/01/17 04:44:04;;;;;;;0.82;0.82;;;;;;;2.47;100.00;97571.00;6041547;23;20007;-94
2023/01/17 04:46:29;;;;;;;0.52;0.52;;;;;;;2.44;100.00;97585.53;6015860;23;20023;-95
2023/01/17 04:48:55;;;;;;;0.30;0.30;;;;;;;2.30;100.00;97595.00;6040750;23;20066;-94
2023/01/17 04:51:21;;;;;;;0.00;0.00;;;;;;;2.26;100.00;97605.28;6017305;23;20019;-93
2023/01/17 04:53:47;;;;;;;0.52;0.47;;;;;;;1.99;100.00;97581.13;6017880;23;20011;-94
2023/01/17 04:56:12;;;;;;;0.00;0.00;;;;;;;2.12;100.00;97624.88;6016616;23;20074;-94
2023/01/17 04:58:38;;;;;;;0.30;0.30;;;;;;;2.14;100.00;97627.94;6016786;23;20436;-93
2023/01/17 05:01:06;;;;;;;0.35;0.28;;;;;;;1.94;100.00;97605.53;6039850;23;20333;-93
2023/01/17 05:03:32;;;;;;;0.05;0.05;;;;;;;2.13;100.00;97631.88;6041358;23;20011;-94
2023/01/17 05:05:58;;;;;;;0.05;0.05;;;;;;;2.20;100.00;97653.53;6018265;23;20019;-94
2023/01/17 05:08:23;;;;;;;0.65;0.65;;;;;;;2.00;100.00;97609.25;6017289;23;20169;-93
2023/01/17 05:10:49;;;;;;;0.10;0.10;;;;;;;2.26;100.00;97652.56;6041600;23;20021;-94
2023/01/17 05:13:16;;;;;;;0.88;0.30;;;;;;;2.33;100.00;97633.19;6040949;23;20059;-93
2023/01/17 05:15:42;;;;;;;0.00;0.00;;;;;;;2.35;100.00;97635.44;6044524;23;20014;-92
2023/01/17 05:18:14;;;;;;;0.10;0.10;;;;;;;2.31;100.00;97641.03;6021884;23;20017;-92
2023/01/17 05:20:40;;;;;;;0.28;0.28;;;;;;;2.29;100.00;97639.97;6046830;23;20034;-93
2023/01/17 05:23:06;;;;;;;0.40;0.40;;;;;;;2.25;100.00;97648.28;6020667;23;20010;-94
2023/01/17 05:25:32;;;;;;;0.13;0.13;;;;;;;2.25;100.00;97647.50;6020068;23;20173;-94
2023/01/17 05:27:59;;;;;;;0.10;0.10;;;;;;;2.24;100.00;97656.91;6017536;23;20003;-94
2023/01/17 05:30:25;;;;;;;0.20;0.20;;;;;;;1.97;100.00;97623.78;6040730;23;20038;-94
2023/01/17 05:32:53;;;;;;;0.00;0.00;;;;;;;2.18;100.00;97661.41;6041107;23;20017;-93
2023/01/17 05:35:22;;;;;;;0.80;0.80;;;;;;;2.25;100.00;97669.41;6040480;23;20023;-94
2023/01/17 05:37:49;;;;;;;0.95;0.95;;;;;;;2.26;100.00;97676.41;6040436;23;20014;-93
2023/01/17 05:40:20;;;;;;;2.47;0.43;;;;;;;2.21;100.00;97677.72;6040194;23;20102;-93
2023/01/17 05:42:51;;;;;;;0.03;0.03;;;;;;;2.22;100.00;97687.47;6019517;23;20503;-93
2023/01/17 05:45:18;;;;;;;0.00;0.00;;;;;;;2.23;100.00;97688.19;6041223;23;20023;-92
2023/01/17 05:47:51;;;;;;;0.15;0.15;;;;;;;2.16;100.00;97677.50;6036904;23;20606;-94
2023/01/17 05:50:27;;;;;;;0.10;0.10;;;;;;;2.28;100.00;97690.41;6036629;23;20042;-93
2023/01/17 05:52:55;;;;;;;1.00;0.75;;;;;;;2.30;100.00;97688.00;6038582;23;20373;-93
2023/01/17 05:55:21;;;;;;;0.10;0.10;;;;;;;2.34;100.00;97688.66;6037631;23;20029;-91
2023/01/17 05:57:47;;;;;;;0.57;0.57;;;;;;;2.22;100.00;97676.53;6038060;23;20042;-92
2023/01/17 06:00:13;;;;;;;0.20;0.20;;;;;;;2.34;100.00;97700.38;6038811;23;20015;-93
2023/01/17 06:02:39;;;;;;;0.65;0.65;;;;;;;2.21;100.00;97685.16;6037446;23;20015;-92
2023/01/17 06:05:05;;;;;;;0.10;0.10;;;;;;;2.27;100.00;97710.75;6014919;23;20045;-92
2023/01/17 06:07:31;;;;;;;0.38;0.38;;;;;;;2.21;100.00;97710.53;6013881;23;20030;-93
2023/01/17 06:09:56;;;;;;;0.00;0.00;;;;;;;2.25;100.00;97707.69;6014416;23;20066;-91
2023/01/17 06:12:22;;;;;;;0.10;0.10;;;;;;;2.16;100.00;97691.94;6009853;23;20024;-92
2023/01/17 06:14:48;;;;;;;3.55;0.40;;;;;;;2.31;100.00;97712.16;5989482;23;20081;-92
2023/01/17 06:17:14;;;;;;;0.40;0.40;;;;;;;2.30;100.00;97709.88;5963183;23;20462;-93
2023/01/17 06:19:39;;;;;;;0.20;0.20;;;;;;;2.30;100.00;97710.66;5964350;23;20015;-91
2023/01/17 06:22:05;;;;;;;0.60;0.57;;;;;;;2.21;100.00;97696.09;5987787;23;20067;-92
2023/01/17 06:24:32;;;;;;;0.20;0.20;;;;;;;2.14;100.00;97691.63;5987149;23;20063;-92
2023/01/17 06:27:00;;;;;;;0.22;0.22;;;;;;;2.30;100.00;97721.59;5967570;23;20023;-93
2023/01/17 06:29:26;;;;;;;0.40;0.40;;;;;;;2.25;100.00;97737.78;6011637;23;20044;-92
2023/01/17 06:31:51;;;;;;;0.40;0.32;;;;;;;2.24;100.00;97742.47;5987499;23;20007;-93
2023/01/17 06:34:17;;;;;;;0.25;0.25;;;;;;;2.24;100.00;97750.69;5965066;23;20018;-91
2023/01/17 06:36:42;;;;;;;0.43;0.43;;;;;;;2.24;100.00;97766.31;5963728;23;20110;-92
2023/01/17 06:39:09;;;;;;;0.17;0.17;;;;;;;2.28;100.00;97777.94;5987317;23;19999;-93
2023/01/17 06:41:35;;;;;;;1.05;0.95;;;;;;;2.25;100.00;97759.66;5987821;23;20456;-93
2023/01/17 06:44:05;;;;;;;0.52;0.52;;;;;;;2.21;100.00;97764.47;5964867;23;20090;-93
2023/01/17 06:46:30;;;;;;;0.20;0.20;;;;;;;2.29;100.00;97784.94;5988934;23;20019;-94
2023/01/17 06:48:56;;;;;;;0.10;0.10;;;;;;;2.23;100.00;97767.53;6008931;23;20115;-93
2023/01/17 06:51:24;;;;;;;0.10;0.10;;;;;;;2.12;100.00;97751.44;5988446;23;20011;-93
2023/01/17 06:53:50;;;;;;;0.52;0.52;;;;;;;2.22;100.00;97761.31;5988927;23;20452;-93
2023/01/17 06:56:16;;;;;;;0.25;0.25;;;;;;;2.15;100.00;97753.28;5964889;23;20011;-91
2023/01/17 06:58:41;;;;;;;1.73;1.63;;;;;;;2.10;100.00;97740.19;5986409;23;20015;-94
2023/01/17 07:01:08;;;;;;;0.30;0.30;;;;;;;2.32;100.00;97762.19;5964195;23;20110;-92
2023/01/17 07:03:34;;;;;;;0.90;0.90;;;;;;;2.35;100.00;97777.72;6009347;23;20094;-95
2023/01/17 07:06:03;;;;;;;0.75;0.75;;;;;;;2.29;100.00;97793.16;5966316;23;20389;-94
2023/01/17 07:08:30;;;;;;;2.78;2.22;;;;;;;2.34;100.00;97809.03;5986873;23;20094;-94
2023/01/17 07:11:01;;;;;;;1.25;0.95;;;;;;;2.31;100.00;97810.66;5989203;23;20015;-93
2023/01/17 07:13:27;;;;;;;0.47;0.47;;;;;;;2.16;100.00;97786.88;6043615;23;20018;-93
2023/01/17 07:15:53;;;;;;;0.32;0.32;;;;;;;2.31;100.00;97798.94;6018993;23;20018;-93
2023/01/17 07:18:22;;;;;;;0.70;0.70;;;;;;;2.30;100.00;97808.38;6065178;23;20074;-93
2023/01/17 07:20:48;;;;;;;0.35;0.35;;;;;;;2.38;100.00;97815.16;6040478;23;20019;-93
2023/01/17 07:23:14;;;;;;;0.68;0.32;;;;;;;2.40;100.00;97825.66;6024452;23;20018;-96
2023/01/17 08:35:37;;;;;;;0.10;0.10;;;;;;;4.17;100.00;97796.66;6081390;23;20026;-95
2023/01/17 08:38:03;;;;;;;0.93;0.93;;;;;;;4.31;100.00;97792.63;6026143;23;20472;-95
2023/01/17 08:40:31;;;;;;;0.90;0.77;;;;;;;4.42;100.00;97798.47;5999569;23;20058;-95
2023/01/17 08:42:58;;;;;;;0.30;0.30;;;;;;;4.50;100.00;97813.47;5997050;23;20045;-90
2023/01/17 08:45:24;;;;;;;2.38;0.65;;;;;;;4.44;100.00;97798.03;6016842;23;20343;-91
2023/01/17 08:47:50;;;;;;;0.17;0.17;;;;;;;4.58;100.00;97811.22;6017227;23;20011;-91
2023/01/17 08:50:19;;;;;;;0.20;0.20;;;;;;;4.80;100.00;97820.16;6016649;23;20508;-91
2023/01/17 08:52:48;;;;;;;0.45;0.45;;;;;;;4.77;100.00;97812.06;6066440;23;20015;-91
2023/01/17 08:55:14;;;;;;;0.75;0.75;;;;;;;4.63;100.00;97792.19;6040024;23;20014;-91
2023/01/17 08:57:39;;;;;;;0.00;0.00;;;;;;;4.86;100.00;97817.59;6066635;23;20015;-91
2023/01/17 09:00:06;;;;;;;0.88;0.77;;;;;;;4.75;100.00;97818.00;6065480;23;20015;-91
2023/01/17 09:02:35;;;;;;;0.68;0.68;;;;;;;4.82;100.00;97817.72;6016646;23;20019;-95
2023/01/17 09:05:01;;;;;;;0.10;0.10;;;;;;;4.75;100.00;97822.72;5995779;23;20015;-96
2023/01/17 09:07:27;;;;;;;0.52;0.22;;;;;;;4.92;100.00;97830.28;5995825;23;20018;-95
2023/01/17 09:09:53;;;;;;;0.82;0.80;;;;;;;4.94;100.00;97832.56;5995555;23;20003;-96
2023/01/17 09:12:22;;;;;;;0.32;0.32;;;;;;;4.96;100.00;97824.66;5975070;23;20015;-95
2023/01/17 09:14:48;;;;;;;0.28;0.28;;;;;;;4.98;100.00;97822.97;5998921;23;20011;-96
2023/01/17 09:17:14;;;;;;;0.00;0.00;;;;;;;4.92;100.00;97810.28;5999921;23;20014;-95
2023/01/17 09:19:44;;;;;;;0.52;0.45;;;;;;;4.91;100.00;97817.00;5999030;23;20023;-95
2023/01/17 09:22:10;;;;;;;1.45;1.30;;;;;;;4.79;100.00;97813.13;6014250;23;20067;-91
2023/01/17 09:24:36;;;;;;;0.00;0.00;;;;;;;4.78;100.00;97810.84;6011082;23;20465;-91
2023/01/17 09:27:02;;;;;;;0.20;0.20;;;;;;;4.89;100.00;97816.69;6034328;23;20011;-90
2023/01/17 09:29:28;;;;;;;0.20;0.20;;;;;;;4.86;100.00;97803.84;5988669;23;20011;-91
2023/01/17 09:31:54;;;;;;;0.90;0.60;;;;;;;4.89;100.00;97790.00;6011887;23;20028;-92
2023/01/17 09:34:20;;;;;;;0.20;0.20;;;;;;;4.97;100.00;97784.97;6034715;23;20087;-90
2023/01/17 09:36:46;;;;;;;0.20;0.20;;;;;;;4.94;100.00;97769.38;6021276;23;20375;-90
2023/01/17 09:39:14;;;;;;;0.63;0.63;;;;;;;4.96;100.00;97769.72;6017716;23;20029;-90
2023/01/17 09:42:01;;;;;;;0.28;0.28;;;;;;;5.13;100.00;97798.47;6048559;23;20014;-95
2023/01/17 09:44:29;;;;;;;0.10;0.10;;;;;;;5.18;100.00;97781.34;5994309;23;20035;-95
2023/01/17 09:47:41;;;;;;;0.10;0.10;;;;;;;5.02;100.00;97752.16;5994904;23;20007;-96
2023/01/17 09:50:42;;;;;;;2.17;1.65;;;;;;;5.18;100.00;97762.09;6004454;23;20015;-96
2023/01/17 09:53:14;;;;;;;0.50;0.50;;;;;;;5.13;100.00;97754.50;5994865;23;20019;-95
2023/01/17 09:55:47;;;;;;;0.73;0.73;;;;;;;5.10;100.00;97744.38;5973587;23;20022;-95
2023/01/17 09:58:20;;;;;;;;;;;;;;;5.31;100.00;97798.47;5997677;23;20022;-95
2023/01/17 10:01:11;;;;;;;0.20;0.20;;;;;;;5.18;100.00;97789.59;5965252;23;19980;-91
2023/01/17 10:03:45;;;;;;;0.47;0.47;;;;;;;5.31;100.00;97787.50;6011242;23;20019;-91
2023/01/17 10:06:35;;;;;;;0.47;0.43;;;;;;;5.50;100.00;97791.78;6011744;23;20090;-90
2023/01/17 10:09:23;;;;;;;2.00;1.30;;;;;;;5.53;100.00;97755.13;6010773;23;20042;-90
2023/01/17 10:12:07;;;;;;;0.77;0.73;;;;;;;5.72;100.00;97782.63;6035676;23;20067;-90
2023/01/17 10:14:48;;;;;;;0.10;0.10;;;;;;;5.61;100.00;97772.09;6034541;23;20078;-91
2023/01/17 10:17:35;;;;;;;0.50;0.50;;;;;;;5.62;100.00;97765.38;6012075;23;20023;-91
2023/01/17 10:20:19;;;;;;;0.82;0.82;;;;;;;5.96;100.00;97769.81;6011297;23;20090;-90
2023/01/17 10:22:53;;;;;;;0.40;0.40;;;;;;;6.10;100.00;97769.19;6035349;23;20109;-90
2023/01/17 10:25:50;;;;;;;0.10;0.10;;;;;;;6.00;100.00;97743.66;6036105;23;20018;-92
2023/01/17 10:28:27;;;;;;;0.32;0.32;;;;;;;6.33;100.00;97754.75;6022085;23;20023;-94
2023/01/17 10:30:57;;;;;;;0.20;0.20;;;;;;;6.55;100.00;97766.28;6037701;23;20078;-92
2023/01/17 10:33:24;;;;;;;0.40;0.40;;;;;;;6.78;100.00;97764.84;5988450;23;20026;-92
2023/01/17 10:36:07;;;;;;;0.98;0.95;;;;;;;6.70;100.00;97721.56;5988903;23;20019;-93
2023/01/17 10:38:37;;;;;;;0.80;0.80;;;;;;;6.79;100.00;97733.31;5991801;23;20019;-92
2023/01/17 10:41:12;;;;;;;0.28;0.20;;;;;;;7.07;100.00;97755.97;6016948;23;20102;-95
2023/01/17 10:43:47;;;;;;;0.20;0.20;;;;;;;6.84;100.00;97718.88;6021628;23;20023;-95
2023/01/17 10:46:19;;;;;;;0.68;0.68;;;;;;;7.10;100.00;97744.00;6001660;23;20067;-96
2023/01/17 10:48:47;;;;;;;0.00;0.00;;;;;;;6.96;100.00;97715.13;5984759;23;20442;-96
2023/01/17 10:51:51;;;;;;;0.70;0.60;;;;;;;7.28;100.00;97746.63;6032171;23;20015;-95
2023/01/17 10:54:53;;;;;;;1.45;0.73;;;;;;;6.87;100.00;97695.13;6029895;23;20059;-96
2023/01/17 10:57:24;;;;;;;0.10;0.10;;;;;;;6.99;100.00;97691.38;6017948;23;20015;-90
2023/01/17 10:59:51;;;;;;;0.22;0.22;;;;;;;7.38;100.00;97715.00;6012948;23;20099;-91
2023/01/17 11:02:46;;;;;;;0.25;0.25;;;;;;;7.50;100.00;97702.19;6013282;23;20505;-91
2023/01/17 11:05:28;;;;;;;0.00;0.00;;;;;;;7.75;100.00;97692.63;6011976;23;20541;-90
2023/01/17 11:08:24;;;;;;;0.38;0.38;;;;;;;7.73;100.00;97712.41;6012519;23;20020;-90
2023/01/17 11:10:56;;;;;;;0.00;0.00;;;;;;;7.20;100.00;97698.56;6034403;23;20019;-90
2023/01/17 11:13:37;;;;;;;0.00;0.00;;;;;;;7.03;100.00;97700.25;6036675;23;20148;-90
2023/01/17 11:16:09;;;;;;;0.00;0.00;;;;;;;6.75;100.00;97690.63;6049060;23;20016;-94
2023/01/17 11:18:37;;;;;;;0.00;0.00;;;;;;;6.63;100.00;97683.34;6008022;23;20023;-95
2023/01/17 11:21:14;;;;;;;1.20;0.55;;;;;;;6.68;100.00;97686.19;6006649;23;20095;-95
2023/01/17 11:23:43;;;;;;;0.25;0.20;;;;;;;6.84;100.00;97701.56;6007481;23;20047;-95
2023/01/17 11:26:29;;;;;;;0.20;0.20;;;;;;;6.54;100.00;97676.66;6005234;23;20504;-94
2023/01/17 11:29:26;;;;;;;0.28;0.28;;;;;;;6.84;100.00;97698.81;6002331;23;20023;-95
2023/01/17 11:31:55;;;;;;;0.00;0.00;;;;;;;6.70;100.00;97649.94;6022359;23;20038;-95
2023/01/17 11:34:25;;;;;;;0.03;0.03;;;;;;;7.00;100.00;97679.88;5998075;23;20007;-93
2023/01/17 11:37:28;;;;;;;0.60;0.60;;;;;;;6.87;100.00;97659.31;6013450;23;20050;-92
2023/01/17 11:40:08;;;;;;;1.55;0.57;;;;;;;6.81;100.00;97630.88;5978857;24;20020;-91
2023/01/17 11:42:35;;;;;;;0.00;0.00;;;;;;;7.03;100.00;97651.41;6008223;23;20473;-93
2023/01/17 11:45:29;;;;;;;0.63;0.52;;;;;;;7.04;100.00;97674.19;6012369;23;20422;-91
2023/01/17 11:48:06;;;;;;;1.07;1.00;;;;;;;6.99;100.00;97672.09;5988177;23;20027;-90
2023/01/17 11:50:32;;;;;;;0.10;0.10;;;;;;;6.76;100.00;97648.03;6036336;23;20074;-91
2023/01/17 11:53:28;;;;;;;0.00;0.00;;;;;;;6.86;100.00;97652.28;5999994;23;20078;-90
2023/01/17 11:56:07;;;;;;;0.10;0.10;;;;;;;6.85;100.00;97661.75;6011419;23;20078;-90
2023/01/17 11:58:36;;;;;;;0.10;0.10;;;;;;;6.65;100.00;97647.81;6013099;23;20522;-90
2023/01/17 12:01:18;;;;;;;0.00;0.00;;;;;;;6.68;100.00;97657.88;6011935;23;20016;-91
2023/01/17 12:04:14;;;;;;;0.75;0.75;;;;;;;6.59;100.00;97641.44;6011461;23;20420;-90
2023/01/17 12:07:17;;;;;;;0.43;0.20;;;;;;;6.76;100.00;97653.56;6012573;23;20012;-90
2023/01/17 12:10:05;;;;;;;0.63;0.63;;;;;;;6.77;100.00;97650.34;6035745;23;20015;-91
2023/01/17 12:18:56;;;;;;;0.52;0.52;;;;;;;6.46;100.00;97625.13;6035364;23;20023;-95
2023/01/17 12:21:50;;;;;;;0.00;0.00;;;;;;;6.23;100.00;97601.81;5966276;23;20015;-94
2023/01/17 12:24:43;;;;;;;0.13;0.13;;;;;;;6.25;100.00;97599.38;5988842;23;20034;-96
2023/01/17 12:27:23;;;;;;;0.50;0.50;;;;;;;6.29;100.00;97599.97;6013406;23;20015;-94
2023/01/17 12:30:14;;;;;;;0.52;0.52;;;;;;;6.32;100.00;97599.03;5990189;23;20015;-95
2023/01/17 12:33:02;;;;;;;0.20;0.20;;;;;;;6.40;100.00;97602.97;6011593;23;20015;-91
2023/01/17 12:35:37;;;;;;;0.20;0.20;;;;;;;6.26;100.00;97573.38;6036027;23;20069;-91
2023/01/17 12:38:09;;;;;;;0.35;0.35;;;;;;;6.25;100.00;97566.34;6061801;23;20042;-93
2023/01/17 12:40:41;;;;;;;0.25;0.25;;;;;;;6.26;100.00;97567.88;6037858;23;20026;-93
2023/01/17 12:43:17;;;;;;;0.47;0.30;;;;;;;6.24;100.00;97553.03;6038655;23;20022;-92
2023/01/17 12:45:44;;;;;;;0.20;0.20;;;;;;;6.39;100.00;97576.66;6085326;23;20023;-93
2023/01/17 12:48:21;;;;;;;0.00;0.00;;;;;;;6.36;100.00;97560.31;6061474;23;20011;-91
2023/01/17 12:51:07;;;;;;;0.10;0.10;;;;;;;6.46;100.00;97564.53;6065975;23;20018;-95
2023/01/17 12:53:51;;;;;;;0.00;0.00;;;;;;;6.50;100.00;97549.38;6050995;23;20057;-95
2023/01/17 12:56:40;;;;;;;0.00;0.00;;;;;;;6.22;100.00;97495.72;6075154;23;20019;-96
2023/01/17 12:59:17;;;;;;;0.30;0.25;;;;;;;6.24;100.00;97503.50;6052146;23;20015;-95
2023/01/17 13:01:56;;;;;;;0.10;0.10;;;;;;;6.22;100.00;97494.94;6096629;23;20018;-94
2023/01/17 13:04:36;;;;;;;0.45;0.30;;;;;;;6.21;100.00;97477.66;6045878;23;20015;-93
2023/01/17 13:07:16;;;;;;;0.10;0.10;;;;;;;6.24;100.00;97478.72;6028238;23;20045;-95
2023/01/17 13:09:45;;;;;;;0.52;0.50;;;;;;;6.30;100.00;97483.13;6022238;23;20026;-90
2023/01/17 13:12:13;;;;;;;0.25;0.25;;;;;;;6.43;100.00;97489.13;6064411;23;20422;-91
2023/01/17 13:14:38;;;;;;;0.00;0.00;;;;;;;6.47;100.00;97495.22;6062827;23;20010;-91
2023/01/17 13:17:24;;;;;;;0.20;0.20;;;;;;;6.53;100.00;97504.34;6062188;23;20361;-92
2023/01/17 13:20:00;;;;;;;0.00;0.00;;;;;;;6.35;100.00;97481.72;6064048;23;20480;-91
2023/01/17 13:22:26;;;;;;;0.30;0.30;;;;;;;6.32;100.00;97460.63;6039856;23;20015;-91
2023/01/17 13:25:14;;;;;;;0.05;0.05;;;;;;;6.44;100.00;97473.38;6086489;23;20010;-91
2023/01/17 13:28:08;;;;;;;0.17;0.15;;;;;;;6.51;100.00;97484.78;6067742;23;20029;-95
2023/01/17 13:30:57;;;;;;;0.65;0.65;;;;;;;6.54;100.00;97478.34;6063290;23;20019;-92
2023/01/17 13:33:35;;;;;;;0.10;0.10;;;;;;;6.53;100.00;97465.03;6062776;23;20015;-90
2023/01/17 13:36:28;;;;;;;0.10;0.10;;;;;;;6.47;100.00;97456.66;6063030;23;20085;-90
2023/01/17 13:39:28;;;;;;;1.63;1.13;;;;;;;6.53;100.00;97448.50;6086529;23;20022;-91
2023/01/17 13:42:25;;;;;;;2.13;0.95;;;;;;;6.45;100.00;97442.63;6012032;23;20027;-91
2023/01/17 13:44:51;;;;;;;0.55;0.55;;;;;;;6.53;100.00;97443.00;6047680;23;20022;-91
2023/01/17 13:47:17;;;;;;;0.30;0.30;;;;;;;6.57;100.00;97435.31;6064198;23;20021;-89
2023/01/17 13:49:48;;;;;;;1.83;0.77;;;;;;;6.36;100.00;97408.88;6085783;23;20018;-93
2023/01/17 13:52:20;;;;;;;0.00;0.00;;;;;;;6.46;100.00;97441.38;6062719;23;20442;-93
2023/01/17 13:54:53;;;;;;;0.45;0.45;;;;;;;6.26;100.00;97402.72;6112434;23;20019;-94
2023/01/17 13:57:24;;;;;;;0.28;0.28;;;;;;;6.40;100.00;97426.75;6084530;23;20011;-94
2023/01/17 13:59:52;;;;;;;0.00;0.00;;;;;;;6.11;100.00;97390.88;6109629;23;20103;-93
2023/01/17 14:02:36;;;;;;;0.00;0.00;;;;;;;6.31;100.00;97404.78;6061470;23;20039;-95
2023/01/17 14:05:14;;;;;;;0.20;0.20;;;;;;;6.30;100.00;97405.28;6084831;23;20019;-93
2023/01/17 14:08:04;;;;;;;0.28;0.25;;;;;;;6.31;100.00;97399.28;6098015;23;20015;-90
2023/01/17 14:10:38;;;;;;;0.03;0.03;;;;;;;6.26;100.00;97391.69;6062508;23;20014;-90
2023/01/17 14:13:05;;;;;;;0.43;0.43;;;;;;;6.15;100.00;97368.72;6062737;23;20011;-91
2023/01/17 14:15:46;;;;;;;0.00;0.00;;;;;;;6.24;100.00;97383.13;6062593;23;20725;-90
2023/01/17 14:18:32;;;;;;;3.67;0.93;;;;;;;6.17;100.00;97367.00;6062369;23;20109;-88
2023/01/17 14:21:12;;;;;;;0.20;0.20;;;;;;;6.22;100.00;97379.34;6061873;23;20011;-91
2023/01/17 14:24:02;;;;;;;0.65;0.65;;;;;;;6.10;100.00;97361.88;6085273;23;20023;-90
2023/01/17 14:26:40;;;;;;;0.00;0.00;;;;;;;6.22;100.00;97374.59;6054737;23;20015;-95
2023/01/17 14:29:44;;;;;;;0.00;0.00;;;;;;;6.21;100.00;97372.31;6097395;23;20043;-94
2023/01/17 14:32:13;;;;;;;0.20;0.20;;;;;;;5.93;100.00;97347.00;6073191;23;20030;-94
2023/01/17 14:34:39;;;;;;;0.10;0.10;;;;;;;5.92;100.00;97345.47;6054046;23;20046;-94
2023/01/17 14:37:18;;;;;;;0.15;0.15;;;;;;;5.91;100.00;97338.47;6062760;23;20022;-94
2023/01/17 14:39:45;;;;;;;0.60;0.47;;;;;;;5.86;100.00;97342.63;6067653;23;20051;-94
2023/01/17 14:42:14;;;;;;;0.20;0.20;;;;;;;6.08;100.00;97369.81;6042751;23;20030;-95
2023/01/17 14:44:40;;;;;;;0.00;0.00;;;;;;;5.83;100.00;97345.53;6063277;23;20022;-88
2023/01/17 14:47:05;;;;;;;0.05;0.05;;;;;;;5.92;100.00;97354.50;6063172;23;20015;-89
2023/01/17 14:49:31;;;;;;;0.35;0.32;;;;;;;5.91;100.00;97355.72;6062225;23;20099;-88
2023/01/17 14:51:58;;;;;;;0.35;0.35;;;;;;;5.96;100.00;97366.09;6086641;23;20319;-87